M I D A S
Marine Information and Data Acquisition System
Tripno 2151 of the Zeeleeuw from 2011-07-26 06:31:55 to 2011-07-26 13:52:39
Back to CruiseResearch ActivitiesStationsMapUnderway DataData graphs

EquipmentUnitsComment
TimeDGPSUTC
LatitudeDGPSDM.mWGS84
LongitudeDGPSDM.mWGS84
TemperatureSBE03/SBE38deg celciusITS90
ConductivitySBE21S/mITS90
SalinitySBE21 Practical Salinity Units
ChlorophylAChelsea fluorimeterg/lCalibrated in Aceton
Missing or incorrect values are displayed as -999
Sea surface data collected by the RV Zeeleeuw from 2011-07-26 06:33:15 to 2011-07-26 13:58:13
Time Latitude Longitude Temperature Conductivity Salinity ChlorophylA
2011-07-26 06:34:24 51°13.65 2°55.946 20.6642 0.059366 0.317266 -3.020363
2011-07-26 06:35:24 51°13.665 2°55.874 20.6862 0.059366 0.317272 -3.020363
2011-07-26 06:36:25 51°13.701 2°55.799 20.6746 0.059366 0.317266 -3.020363
2011-07-26 06:37:24 51°13.749 2°55.721 20.6942 0.059366 0.317272 -3.020363
2011-07-26 06:38:24 51°13.797 2°55.661 20.6877 0.059366 0.317283 -3.020363
2011-07-26 06:39:24 51°13.865 2°55.638 20.6635 0.059366 0.317277 -3.020363
2011-07-26 06:40:25 51°13.925 2°55.639 20.699 0.059366 0.317288 -3.020363
2011-07-26 06:41:24 51°13.949 2°55.651 18.2468 2.140777 14.527731 -3.020363
2011-07-26 06:42:23 51°13.935 2°55.625 17.9539 3.969369 29.478781 -3.020363
2011-07-26 06:43:24 51°13.934 2°55.613 17.8773 3.898601 29.092884 -3.020363
2011-07-26 06:44:23 51°13.99 2°55.546 17.807 3.910621 29.257356 -3.020363
2011-07-26 06:45:21 51°14.088 2°55.46 17.8033 3.969581 29.776399 -3.020363
2011-07-26 06:46:20 51°14.211 2°55.351 17.7751 4.000878 30.051327 -3.020363
2011-07-26 06:47:24 51°14.349 2°55.224 17.765 4.03114 30.323487 -3.020363
2011-07-26 06:48:23 51°14.48 2°55.08 17.7412 4.071665 30.684859 -3.020363
2011-07-26 06:49:24 51°14.637 2°54.933 17.7308 4.094053 30.868144 -3.020363
2011-07-26 06:50:23 51°14.789 2°54.774 17.6862 4.136656 31.24907 -3.020363
2011-07-26 06:51:24 51°14.95 2°54.585 17.6497 4.160707 31.486243 -3.020363
2011-07-26 06:52:22 51°15.109 2°54.407 17.6331 4.169934 31.590116 -3.020363
2011-07-26 06:53:21 51°15.268 2°54.215 17.639 4.17688 31.658134 -3.020363
2011-07-26 06:54:21 51°15.425 2°54.011 17.6281 4.1831 31.702666 -3.020363
2011-07-26 06:55:21 51°15.57 2°53.788 17.6169 4.189839 31.775227 -3.020363
2011-07-26 06:56:21 51°15.722 2°53.582 17.6322 4.192742 31.797925 -3.020363
2011-07-26 06:57:21 51°15.878 2°53.378 17.6437 4.194712 31.808985 -3.020363
2011-07-26 06:58:21 51°16.055 2°53.226 17.6542 4.198133 31.827334 -3.020363
2011-07-26 06:59:21 51°16.245 2°53.119 17.6611 4.209952 31.919852 -3.020363
2011-07-26 07:00:21 51°16.435 2°52.999 17.652 4.219283 31.998833 -3.020363
2011-07-26 07:01:21 51°16.617 2°52.861 17.6407 4.217935 31.996199 -3.020363
2011-07-26 07:02:21 51°16.809 2°52.757 17.6471 4.215758 31.984031 -3.020363
2011-07-26 07:03:21 51°17 2°52.656 17.6562 4.219386 32.009745 -3.020363
2011-07-26 07:04:21 51°17.2 2°52.598 17.6693 4.226851 32.06229 -3.020363
2011-07-26 07:05:21 51°17.403 2°52.56 17.6697 4.232761 32.104794 -3.020363
2011-07-26 07:06:21 51°17.609 2°52.542 17.6613 4.236701 32.140678 -3.020363
2011-07-26 07:07:21 51°17.817 2°52.546 17.6508 4.241056 32.18324 -3.020363
2011-07-26 07:08:21 51°18.024 2°52.543 17.6532 4.245203 32.225329 -3.020363
2011-07-26 07:09:21 51°18.228 2°52.561 17.6537 4.250491 32.267626 -3.020363
2011-07-26 07:10:21 51°18.434 2°52.573 17.6529 4.25609 32.314464 -3.020363
2011-07-26 07:11:21 51°18.639 2°52.567 17.6546 4.262311 32.367854 -3.020363
2011-07-26 07:12:21 51°18.843 2°52.576 17.6433 4.267703 32.41613 -3.020363
2011-07-26 07:13:21 51°19.051 2°52.586 17.666 4.268844 32.427713 -3.020363
2011-07-26 07:14:21 51°19.257 2°52.579 17.666 4.271747 32.433276 -3.020363
2011-07-26 07:15:21 51°19.46 2°52.59 17.6584 4.269569 32.416081 -3.020363
2011-07-26 07:16:21 51°19.664 2°52.589 17.6493 4.257749 32.319031 -3.020363
2011-07-26 07:17:21 51°19.869 2°52.584 17.6256 4.250595 32.267241 -3.020363
2011-07-26 07:18:21 51°20.072 2°52.592 17.6099 4.243648 32.22857 -3.020363
2011-07-26 07:19:21 51°20.279 2°52.58 17.5747 4.241782 32.224118 -3.020363
2011-07-26 07:20:21 51°20.486 2°52.574 17.5596 4.243649 32.263371 -3.020363
2011-07-26 07:21:21 51°20.688 2°52.583 17.5608 4.245412 32.289749 -3.020363
2011-07-26 07:22:21 51°20.893 2°52.575 17.5603 4.265734 32.461145 -3.020363
2011-07-26 07:23:21 51°21.096 2°52.581 17.571 4.267393 32.480989 -3.020363
2011-07-26 07:24:21 51°21.3 2°52.578 17.567 4.266667 32.47099 -3.020363
2011-07-26 07:25:21 51°21.508 2°52.569 17.5779 4.263764 32.44695 -3.020363
2011-07-26 07:26:21 51°21.715 2°52.578 17.5729 4.263557 32.440726 -3.020363
2011-07-26 07:27:21 51°21.922 2°52.574 17.5625 4.266667 32.47099 -3.020363
2011-07-26 07:28:21 51°22.13 2°52.568 17.5794 4.2704 32.500807 -3.020363
2011-07-26 07:29:21 51°22.336 2°52.574 17.5798 4.274548 32.537987 -3.020363
2011-07-26 07:30:21 51°22.543 2°52.57 17.627 4.289479 32.650874 -3.020363
2011-07-26 07:31:21 51°22.751 2°52.567 17.6356 4.312914 32.824476 -3.020363
2011-07-26 07:32:21 51°22.961 2°52.575 17.6499 4.327328 32.931595 -3.020363
2011-07-26 07:33:21 51°23.167 2°52.588 17.6519 4.333447 32.976528 -3.020363
2011-07-26 07:34:21 51°23.374 2°52.581 17.6585 4.338736 33.018929 -3.020363
2011-07-26 07:35:21 51°23.582 2°52.581 17.6722 4.345684 33.072858 -3.020363
2011-07-26 07:36:21 51°23.787 2°52.593 17.6643 4.357817 33.173512 -3.020363
2011-07-26 07:37:21 51°23.99 2°52.583 17.6741 4.36601 33.24521 -3.020363
2011-07-26 07:38:21 51°24.191 2°52.601 17.6566 4.374411 33.313481 -3.020363
2011-07-26 07:39:21 51°24.395 2°52.605 17.6454 4.379182 33.361309 -3.020363
2011-07-26 07:40:21 51°24.599 2°52.614 17.6488 4.380427 33.378458 -3.020363
2011-07-26 07:41:21 51°24.8 2°52.622 17.6188 4.381568 33.399973 -3.020363
2011-07-26 07:42:21 51°25.003 2°52.62 17.6243 4.378145 33.3839 -3.020363
2011-07-26 07:43:21 51°25.21 2°52.629 17.6163 4.377005 33.38138 -3.020363
2011-07-26 07:44:21 51°25.416 2°52.613 17.6338 4.381983 33.410722 -3.020363
2011-07-26 07:45:21 51°25.622 2°52.61 17.6349 4.38499 33.419316 -3.020363
2011-07-26 07:46:21 51°25.828 2°52.611 17.6395 4.387168 33.438538 -3.020363
2011-07-26 07:47:21 51°26.031 2°52.587 17.6353 4.38779 33.450405 -3.020363
2011-07-26 07:48:21 51°26.238 2°52.567 17.6145 4.386546 33.445043 -3.020363
2011-07-26 07:49:21 51°26.443 2°52.548 17.6074 4.389035 33.474812 -3.020363
2011-07-26 07:50:21 51°26.647 2°52.527 17.5954 4.392562 33.514766 -3.020363
2011-07-26 07:51:21 51°26.851 2°52.533 17.5909 4.39308 33.525776 -3.020363
2011-07-26 07:52:21 51°27.055 2°52.54 17.5991 4.395674 33.55714 -3.020363
2011-07-26 07:53:21 51°27.257 2°52.515 17.5716 4.400963 33.610241 -3.020363
2011-07-26 07:54:21 51°27.46 2°52.504 17.5571 4.403245 33.642301 -3.020363
2011-07-26 07:55:21 51°27.666 2°52.493 17.5525 4.402623 33.638305 -3.020363
2011-07-26 07:56:21 51°27.872 2°52.483 17.548 4.403868 33.652253 -3.020363
2011-07-26 07:57:21 51°28.074 2°52.461 17.5471 4.40449 33.662208 -3.020363
2011-07-26 07:58:21 51°28.278 2°52.458 17.5476 4.402623 33.64757 -3.020363
2011-07-26 07:59:21 51°28.48 2°52.451 17.5376 4.400756 33.636241 -3.020363
2011-07-26 08:00:21 51°28.683 2°52.441 17.5365 4.400238 33.634454 -3.020363
2011-07-26 08:01:21 51°28.887 2°52.425 17.5311 4.400964 33.645959 -3.020363
2011-07-26 08:02:21 51°29.094 2°52.423 17.53 4.404075 33.672572 -3.020363
2011-07-26 08:03:21 51°29.305 2°52.424 17.5093 4.406254 33.695846 -3.020363
2011-07-26 08:04:20 51°29.509 2°52.425 17.5088 4.406461 33.710894 -3.020363
2011-07-26 08:05:21 51°29.716 2°52.447 17.503 4.410921 33.749735 -3.020363
2011-07-26 08:06:21 51°29.919 2°52.451 17.5045 4.426791 33.888298 -3.020363
2011-07-26 08:07:21 51°30.126 2°52.449 17.5052 4.433325 33.946291 -3.020363
2011-07-26 08:08:21 51°30.33 2°52.466 17.4995 4.435503 33.966296 -3.020363
2011-07-26 08:09:21 51°30.536 2°52.474 17.4854 4.436333 33.979433 -3.020363
2011-07-26 08:10:21 51°30.735 2°52.478 17.4747 4.436333 33.987471 -3.020363
2011-07-26 08:11:21 51°30.94 2°52.485 17.472 4.438616 34.013743 -3.020363
2011-07-26 08:12:21 51°31.122 2°52.496 17.4602 4.441001 34.040247 -3.020363
2011-07-26 08:13:21 51°31.213 2°52.501 17.4569 4.442972 34.061857 -3.020363
2011-07-26 08:14:21 51°31.245 2°52.497 17.4493 4.443595 34.071903 -3.020363
2011-07-26 08:15:23 51°31.243 2°52.516 17.4535 4.444321 34.080824 -3.020363
2011-07-26 08:16:23 51°31.239 2°52.541 17.4477 4.444321 34.080151 -3.020363
2011-07-26 08:17:21 51°31.237 2°52.555 17.4555 4.444113 34.078371 -3.020363
2011-07-26 08:18:21 51°31.235 2°52.551 17.4472 4.444528 34.08395 -3.020363
2011-07-26 08:19:21 51°31.234 2°52.549 17.4532 4.445047 34.088401 -3.020363
2011-07-26 08:20:21 51°31.233 2°52.552 17.4473 4.444425 34.083732 -3.020363
2011-07-26 08:21:21 51°31.233 2°52.551 17.4425 4.444528 34.087313 -3.020363
2011-07-26 08:22:21 51°31.233 2°52.551 17.4415 4.44484 34.092003 -3.020363
2011-07-26 08:23:21 51°31.233 2°52.553 17.4433 4.444217 34.088678 -3.020363
2011-07-26 08:24:21 51°31.233 2°52.55 17.4393 4.444114 34.087787 -3.020363
2011-07-26 08:25:21 51°31.232 2°52.551 17.4406 4.44401 34.086224 -3.020363
2011-07-26 08:26:21 51°31.232 2°52.551 17.4401 4.44401 34.086897 -3.020363
2011-07-26 08:27:21 51°31.232 2°52.549 17.44 4.443595 34.086026 -3.020363
2011-07-26 08:28:21 51°31.232 2°52.551 17.437 4.443387 34.082899 -3.020363
2011-07-26 08:29:21 51°31.231 2°52.55 17.4344 4.443595 34.085353 -3.020363
2011-07-26 08:30:21 51°31.231 2°52.548 17.4398 4.441832 34.070886 -3.020363
2011-07-26 08:31:21 51°31.231 2°52.549 17.4372 4.441209 34.066216 -3.020363
2011-07-26 08:32:21 51°31.231 2°52.552 17.4367 4.440068 34.05642 -3.020363
2011-07-26 08:33:21 51°31.232 2°52.55 17.438 4.440172 34.057311 -3.020363
2011-07-26 08:34:21 51°31.231 2°52.549 17.4366 4.439964 34.053513 -3.020363
2011-07-26 08:35:21 51°31.23 2°52.549 17.4353 4.443387 34.084917 -3.020363
2011-07-26 08:36:21 51°31.231 2°52.547 17.4349 4.443284 34.088064 -3.020363
2011-07-26 08:37:21 51°31.231 2°52.549 17.4356 4.44318 34.086501 -3.020363
2011-07-26 08:38:21 51°31.231 2°52.551 17.4344 4.442558 34.080484 -3.020363
2011-07-26 08:39:21 51°31.232 2°52.55 17.4323 4.442765 34.081592 -3.020363
2011-07-26 08:40:21 51°31.232 2°52.552 17.4353 4.44318 34.086501 -3.020363
2011-07-26 08:41:21 51°31.235 2°52.551 17.4371 4.443491 34.0885 -3.020363
2011-07-26 08:42:21 51°31.236 2°52.553 17.4423 4.443284 34.082681 -3.020363
2011-07-26 08:43:21 51°31.236 2°52.555 17.4397 4.444114 34.086442 -3.020363
2011-07-26 08:44:21 51°31.235 2°52.555 17.442 4.444321 34.089568 -3.020363
2011-07-26 08:45:21 51°31.235 2°52.552 17.4449 4.444736 34.091785 -3.020363
2011-07-26 08:46:21 51°31.236 2°52.554 17.45 4.444736 34.090439 -3.020363
2011-07-26 08:47:21 51°31.237 2°52.555 17.4445 4.445358 34.095109 -3.020363
2011-07-26 08:48:21 51°31.237 2°52.554 17.4455 4.44484 34.09133 -3.020363
2011-07-26 08:49:21 51°31.236 2°52.555 17.4479 4.444528 34.087986 -3.020363
2011-07-26 08:50:21 51°31.236 2°52.554 17.447 4.443595 34.079299 -3.020363
2011-07-26 08:51:21 51°31.236 2°52.553 17.4491 4.444528 34.08664 -3.020363
2011-07-26 08:52:21 51°31.235 2°52.554 17.4471 4.441831 34.064835 -3.020363
2011-07-26 08:53:21 51°31.235 2°52.553 17.4462 4.441728 34.063272 -3.020363
2011-07-26 08:54:21 51°31.236 2°52.552 17.4464 4.441417 34.059257 -3.020363
2011-07-26 08:55:21 51°31.236 2°52.553 17.4475 4.441209 34.057476 -3.020363
2011-07-26 08:56:21 51°31.235 2°52.554 17.4458 4.429903 33.961797 -3.020363
2011-07-26 08:57:21 51°31.235 2°52.553 17.4454 4.440587 34.053479 -3.020363
2011-07-26 08:58:21 51°31.236 2°52.552 17.4468 4.440379 34.051698 -3.020363
2011-07-26 08:59:21 51°31.235 2°52.555 17.4489 4.440172 34.049245 -3.020363
2011-07-26 09:00:21 51°31.239 2°52.544 17.4472 4.439964 34.048137 -3.020363
2011-07-26 09:01:21 51°31.245 2°52.532 17.4482 4.439861 34.047918 -3.020363
2011-07-26 09:02:21 51°31.245 2°52.528 17.4489 4.439653 34.043451 -3.020363
2011-07-26 09:03:21 51°31.245 2°52.529 17.4491 4.439342 34.041452 -3.020363
2011-07-26 09:04:21 51°31.243 2°52.542 17.4479 4.439238 34.03989 -3.020363
2011-07-26 09:05:21 51°31.239 2°52.551 17.449 4.439135 34.040343 -3.020363
2011-07-26 09:06:21 51°31.217 2°52.531 17.4497 4.439031 34.038109 -3.020363
2011-07-26 09:07:21 51°31.144 2°52.546 17.4469 4.43872 34.036782 -3.020363
2011-07-26 09:08:21 51°30.995 2°52.518 17.4462 4.43789 34.028317 -3.020363
2011-07-26 09:09:21 51°30.808 2°52.467 17.452 4.436334 34.014966 -3.020363
2011-07-26 09:10:21 51°30.604 2°52.449 17.4538 4.434052 33.994714 -3.020363
2011-07-26 09:11:21 51°30.402 2°52.433 17.458 4.43177 33.972453 -3.020363
2011-07-26 09:12:21 51°30.2 2°52.424 17.4698 4.431355 33.962864 -3.020363
2011-07-26 09:13:21 51°29.996 2°52.42 17.4711 4.431874 33.961953 -3.020363
2011-07-26 09:14:21 51°29.79 2°52.413 17.4712 4.432807 33.967949 -3.020363
2011-07-26 09:15:21 51°29.589 2°52.401 17.477 4.433844 33.974834 -3.020363
2011-07-26 09:16:21 51°29.387 2°52.385 17.4903 4.433429 33.963909 -3.020363
2011-07-26 09:17:21 51°29.189 2°52.369 17.4938 4.421812 33.856991 -3.020363
2011-07-26 09:18:21 51°28.989 2°52.35 17.4948 4.407602 33.734613 -3.020363
2011-07-26 09:19:21 51°28.787 2°52.336 17.5124 4.40252 33.683797 -3.020363
2011-07-26 09:20:21 51°28.589 2°52.291 17.5219 4.40086 33.658322 -3.020363
2011-07-26 09:21:21 51°28.387 2°52.246 17.5364 4.40252 33.665229 -3.020363
2011-07-26 09:22:21 51°28.189 2°52.199 17.5361 4.398786 33.623361 -3.020363
2011-07-26 09:23:21 51°27.99 2°52.153 17.5426 4.398578 33.61828 -3.020363
2011-07-26 09:24:21 51°27.793 2°52.105 17.5385 4.398682 33.617182 -3.020363
2011-07-26 09:25:21 51°27.595 2°52.064 17.5431 4.399823 33.627598 -3.020363
2011-07-26 09:26:21 51°27.397 2°52.021 17.5489 4.403557 33.653565 -3.020363
2011-07-26 09:27:21 51°27.197 2°51.972 17.5536 4.406564 33.676632 -3.020363
2011-07-26 09:28:21 51°27.005 2°51.929 17.5563 4.408016 33.687722 -3.020363
2011-07-26 09:29:21 51°26.862 2°51.91 17.5688 4.410506 33.70304 -3.020363
2011-07-26 09:30:21 51°26.754 2°51.894 17.574 4.413098 33.714601 -3.020363
2011-07-26 09:31:21 51°26.713 2°51.855 17.5834 4.411542 33.696004 -3.020363
2011-07-26 09:32:21 51°26.706 2°51.846 17.5877 4.408638 33.667218 -3.020363
2011-07-26 09:33:21 51°26.705 2°51.87 17.5859 4.405838 33.64131 -3.020363
2011-07-26 09:34:21 51°26.704 2°51.895 17.592 4.405112 33.633126 -3.020363
2011-07-26 09:35:21 51°26.703 2°51.898 17.5914 4.404593 33.627375 -3.020363
2011-07-26 09:36:21 51°26.703 2°51.894 17.595 4.402934 33.611881 -3.020363
2011-07-26 09:37:21 51°26.703 2°51.897 17.5968 4.402415 33.605472 -3.020363
2011-07-26 09:38:21 51°26.704 2°51.898 17.596 4.401585 33.596406 -3.020363
2011-07-26 09:39:21 51°26.704 2°51.898 17.5985 4.400755 33.586683 -3.020363
2011-07-26 09:40:21 51°26.705 2°51.896 17.6004 4.400237 33.582255 -3.020363
2011-07-26 09:41:21 51°26.705 2°51.897 17.6013 4.3992 33.572082 -3.020363
2011-07-26 09:42:21 51°26.705 2°51.898 17.6019 4.399303 33.572308 -3.020363
2011-07-26 09:43:21 51°26.705 2°51.898 17.6006 4.398992 33.569652 -3.020363
2011-07-26 09:44:21 51°26.706 2°51.897 17.6007 4.398577 33.565451 -3.020363
2011-07-26 09:45:21 51°26.705 2°51.898 17.5992 4.39754 33.557916 -3.020363
2011-07-26 09:46:21 51°26.706 2°51.897 17.6014 4.396607 33.549289 -3.020363
2011-07-26 09:47:21 51°26.706 2°51.897 17.6043 4.397436 33.555712 -3.020363
2011-07-26 09:48:21 51°26.707 2°51.897 17.6037 4.391421 33.503713 -3.020363
2011-07-26 09:49:21 51°26.707 2°51.896 17.605 4.390695 33.498176 -3.020363
2011-07-26 09:50:21 51°26.707 2°51.898 17.6019 4.390384 33.494863 -3.020363
2011-07-26 09:51:21 51°26.707 2°51.897 17.6021 4.389139 33.4849 -3.020363
2011-07-26 09:52:21 51°26.709 2°51.896 17.603 4.389347 33.486013 -3.020363
2011-07-26 09:53:21 51°26.709 2°51.897 17.6037 4.389347 33.484698 -3.020363
2011-07-26 09:54:21 51°26.709 2°51.897 17.6049 4.389035 33.4827 -3.020363
2011-07-26 09:55:21 51°26.709 2°51.897 17.6064 4.388724 33.479388 -3.020363
2011-07-26 09:56:21 51°26.709 2°51.896 17.6068 4.387687 33.469881 -3.020363
2011-07-26 09:57:21 51°26.71 2°51.895 17.6086 4.387791 33.470109 -3.020363
2011-07-26 09:58:21 51°26.71 2°51.897 17.6073 4.385924 33.454182 -3.020363
2011-07-26 09:59:21 51°26.71 2°51.897 17.6096 4.385509 33.449986 -3.020363
2011-07-26 10:00:21 51°26.71 2°51.896 17.6111 4.38499 33.444249 -3.020363
2011-07-26 10:01:21 51°26.709 2°51.897 17.6114 4.38499 33.441622 -3.020363
2011-07-26 10:02:21 51°26.708 2°51.897 17.6137 4.384679 33.438969 -3.020363
2011-07-26 10:03:21 51°26.708 2°51.896 17.612 4.384368 33.435658 -3.020363
2011-07-26 10:04:21 51°26.708 2°51.896 17.6136 4.383953 33.43212 -3.020363
2011-07-26 10:05:21 51°26.708 2°51.897 17.6134 4.38385 33.429923 -3.020363
2011-07-26 10:06:21 51°26.708 2°51.897 17.6164 4.383435 33.427041 -3.020363
2011-07-26 10:07:21 51°26.708 2°51.897 17.6164 4.383331 33.423532 -3.020363
2011-07-26 10:08:21 51°26.709 2°51.896 17.6166 4.38302 33.421534 -3.020363
2011-07-26 10:09:21 51°26.709 2°51.896 17.6147 4.382709 33.418225 -3.020363
2011-07-26 10:10:21 51°26.71 2°51.896 17.6187 4.38219 33.414459 -3.020363
2011-07-26 10:11:21 51°26.712 2°51.895 17.619 4.381049 33.402763 -3.020363
2011-07-26 10:12:21 51°26.712 2°51.895 17.6207 4.380842 33.400994 -3.020363
2011-07-26 10:13:21 51°26.711 2°51.896 17.6207 4.380945 33.401223 -3.020363
2011-07-26 10:14:21 51°26.71 2°51.896 17.6208 4.380945 33.399912 -3.020363
2011-07-26 10:15:21 51°26.709 2°51.895 17.622 4.380427 33.394835 -3.020363
2011-07-26 10:16:21 51°26.708 2°51.884 17.6198 4.379908 33.391724 -3.020363
2011-07-26 10:17:21 51°26.708 2°51.868 17.6219 4.379908 33.390413 -3.020363
2011-07-26 10:18:21 51°26.707 2°51.856 17.6233 4.379286 33.385108 -3.020363
2011-07-26 10:19:21 51°26.708 2°51.858 17.6219 4.378975 33.382455 -3.020363
2011-07-26 10:20:21 51°26.706 2°51.87 17.6223 4.378767 33.378067 -3.020363
2011-07-26 10:21:21 51°26.703 2°51.875 17.6267 4.378975 33.3818 -3.020363
2011-07-26 10:22:21 51°26.698 2°51.83 17.6266 4.379079 33.380064 -3.020363
2011-07-26 10:23:21 51°26.688 2°51.762 17.6245 4.378664 33.377837 -3.020363
2011-07-26 10:24:21 51°26.668 2°51.661 17.627 4.378456 33.374759 -3.020363
2011-07-26 10:25:21 51°26.637 2°51.494 17.6291 4.37856 33.373679 -3.020363
2011-07-26 10:26:20 51°26.61 2°51.31 17.6284 4.378352 33.370601 -3.020363
2011-07-26 10:27:21 51°26.584 2°51.115 17.6331 4.377938 33.365101 -3.020363
2011-07-26 10:28:21 51°26.559 2°50.922 17.6352 4.376071 33.347882 -3.020363
2011-07-26 10:29:20 51°26.537 2°50.731 17.6344 4.375656 33.343038 -3.020363
2011-07-26 10:30:21 51°26.507 2°50.514 17.6354 4.375345 33.339733 -3.020363
2011-07-26 10:31:20 51°26.473 2°50.278 17.6329 4.375552 33.342154 -3.020363
2011-07-26 10:32:20 51°26.444 2°50.031 17.6319 4.375137 33.339273 -3.020363
2011-07-26 10:33:20 51°26.411 2°49.783 17.6335 4.37493 33.33816 -3.020363
2011-07-26 10:34:20 51°26.381 2°49.536 17.6276 4.374411 33.336357 -3.020363
2011-07-26 10:35:21 51°26.349 2°49.286 17.6248 4.373997 33.33413 -3.020363
2011-07-26 10:36:20 51°26.318 2°49.045 17.6263 4.373063 33.328137 -3.020363
2011-07-26 10:37:21 51°26.274 2°48.806 17.62 4.372337 33.325873 -3.020363
2011-07-26 10:38:20 51°26.224 2°48.631 17.6169 4.37213 33.325413 -3.020363
2011-07-26 10:39:21 51°26.177 2°48.463 17.6137 4.371611 33.324264 -3.020363
2011-07-26 10:40:20 51°26.133 2°48.303 17.6098 4.371093 33.320497 -3.020363
2011-07-26 10:41:21 51°26.091 2°48.137 17.6102 4.371093 33.32246 -3.020363
2011-07-26 10:42:20 51°26.043 2°47.981 17.609 4.370678 33.318923 -3.020363
2011-07-26 10:43:20 51°25.994 2°47.821 17.6103 4.371923 33.330842 -3.020363
2011-07-26 10:44:20 51°25.942 2°47.663 17.6084 4.37213 33.333264 -3.020363
2011-07-26 10:45:20 51°25.893 2°47.503 17.6084 4.373375 33.343221 -3.020363
2011-07-26 10:46:20 51°25.847 2°47.338 17.6038 4.373271 33.344955 -3.020363
2011-07-26 10:47:20 51°25.798 2°47.175 17.5995 4.374204 33.355533 -3.020363
2011-07-26 10:48:21 51°25.745 2°47.011 17.5961 4.375242 33.367654 -3.020363
2011-07-26 10:49:20 51°25.704 2°46.872 17.5976 4.404904 33.622105 -3.020363
2011-07-26 10:50:21 51°25.672 2°46.767 17.5941 4.408016 33.648015 -3.020363
2011-07-26 10:51:20 51°25.644 2°46.675 17.5912 4.410505 33.672581 -3.020363
2011-07-26 10:52:20 51°25.62 2°46.593 17.5895 4.411957 33.68697 -3.020363
2011-07-26 10:53:20 51°25.596 2°46.513 17.5917 4.414135 33.706901 -3.020363
2011-07-26 10:54:21 51°25.57 2°46.432 17.5947 4.417662 33.735706 -3.020363
2011-07-26 10:55:21 51°25.54 2°46.347 17.6005 4.423678 33.782467 -3.020363
2011-07-26 10:56:21 51°25.499 2°46.234 17.608 4.428864 33.823465 -3.020363
2011-07-26 10:57:21 51°25.454 2°46.111 17.6102 4.43322 33.856708 -3.020363
2011-07-26 10:58:20 51°25.433 2°46.034 17.6104 4.43602 33.877982 -3.020363
2011-07-26 10:59:21 51°25.425 2°45.993 17.6136 4.43768 33.892166 -3.020363
2011-07-26 11:00:20 51°25.42 2°45.973 17.6121 4.438614 33.898814 -3.020363
2011-07-26 11:01:20 51°25.417 2°45.963 17.6159 4.438925 33.900808 -3.020363
2011-07-26 11:02:20 51°25.416 2°45.962 17.6145 4.439132 33.902581 -3.020363
2011-07-26 11:03:21 51°25.412 2°45.968 17.6143 4.43934 33.903688 -3.020363
2011-07-26 11:04:20 51°25.408 2°45.98 17.6145 4.439443 33.903243 -3.020363
2011-07-26 11:05:21 51°25.406 2°45.995 17.6165 4.439547 33.902798 -3.020363
2011-07-26 11:06:21 51°25.403 2°46.012 17.6202 4.439547 33.900801 -3.020363
2011-07-26 11:07:20 51°25.4 2°46.028 17.6192 4.438821 33.894597 -3.020363
2011-07-26 11:08:21 51°25.397 2°46.044 17.619 4.437161 33.87975 -3.020363
2011-07-26 11:09:20 51°25.395 2°46.06 17.622 4.438199 33.888613 -3.020363
2011-07-26 11:10:20 51°25.391 2°46.076 17.6277 4.439132 33.893929 -3.020363
2011-07-26 11:11:20 51°25.388 2°46.089 17.624 4.439132 33.893263 -3.020363
2011-07-26 11:12:21 51°25.385 2°46.102 17.6275 4.438717 33.889718 -3.020363
2011-07-26 11:13:20 51°25.381 2°46.114 17.6255 4.438821 33.887943 -3.020363
2011-07-26 11:14:21 51°25.379 2°46.125 17.6277 4.438406 33.885064 -3.020363
2011-07-26 11:15:21 51°25.375 2°46.138 17.6317 4.438095 33.88041 -3.020363
2011-07-26 11:16:20 51°25.372 2°46.148 17.6348 4.437784 33.877086 -3.020363
2011-07-26 11:17:21 51°25.368 2°46.158 17.6365 4.43768 33.873541 -3.020363
2011-07-26 11:18:20 51°25.364 2°46.167 17.6379 4.43768 33.870882 -3.020363
2011-07-26 11:19:20 51°25.361 2°46.175 17.6368 4.437576 33.868667 -3.020363
2011-07-26 11:20:20 51°25.357 2°46.179 17.6413 4.437368 33.865566 -3.020363
2011-07-26 11:21:21 51°25.325 2°46.077 17.6423 4.437057 33.862908 -3.020363
2011-07-26 11:22:21 51°25.262 2°45.83 17.6395 4.436539 33.856486 -3.020363
2011-07-26 11:23:20 51°25.195 2°45.563 17.6346 4.435813 33.852278 -3.020363
2011-07-26 11:24:21 51°25.143 2°45.254 17.6341 4.43519 33.848955 -3.020363
2011-07-26 11:25:20 51°25.09 2°44.94 17.6343 4.434983 33.847183 -3.020363
2011-07-26 11:26:20 51°25.02 2°44.631 17.6258 4.435398 33.854713 -3.020363
2011-07-26 11:27:20 51°24.944 2°44.336 17.6242 4.436539 33.867118 -3.020363
2011-07-26 11:28:21 51°24.914 2°44.167 17.6253 4.43768 33.88019 -3.020363
2011-07-26 11:29:20 51°24.878 2°44.077 17.6212 4.438302 33.886173 -3.020363
2011-07-26 11:30:20 51°24.844 2°44.002 17.6169 4.438717 33.890383 -3.020363
2011-07-26 11:31:21 51°24.811 2°43.926 17.6148 4.43851 33.891937 -3.020363
2011-07-26 11:32:20 51°24.771 2°43.857 17.6076 4.437369 33.884183 -3.020363
2011-07-26 11:33:20 51°24.729 2°43.792 17.6068 4.435191 33.86956 -3.020363
2011-07-26 11:34:21 51°24.701 2°43.74 17.606 4.432909 33.852054 -3.020363
2011-07-26 11:35:20 51°24.677 2°43.707 17.6045 4.430212 33.832995 -3.020363
2011-07-26 11:36:20 51°24.663 2°43.698 17.6008 4.425648 33.793997 -3.020363
2011-07-26 11:37:21 51°24.659 2°43.7 17.5996 4.429693 33.831886 -3.020363
2011-07-26 11:38:20 51°24.656 2°43.703 17.5963 4.432287 33.854714 -3.020363
2011-07-26 11:39:20 51°24.652 2°43.708 17.5996 4.431768 33.850946 -3.020363
2011-07-26 11:40:20 51°24.648 2°43.711 17.6031 4.431975 33.849395 -3.020363
2011-07-26 11:41:21 51°24.644 2°43.715 17.5999 4.431249 33.843854 -3.020363
2011-07-26 11:42:21 51°24.64 2°43.723 17.6035 4.430938 33.841859 -3.020363
2011-07-26 11:43:22 51°24.648 2°43.755 17.6011 4.430938 33.839865 -3.020363
2011-07-26 11:44:24 51°24.668 2°43.787 17.6015 4.430731 33.837427 -3.020363
2011-07-26 11:45:24 51°24.657 2°43.776 17.6024 4.430523 33.838313 -3.020363
2011-07-26 11:46:22 51°24.664 2°43.692 17.601 4.430731 33.836098 -3.020363
2011-07-26 11:47:20 51°24.709 2°43.667 17.5964 4.430005 33.83521 -3.020363
2011-07-26 11:48:20 51°24.724 2°43.684 17.5978 4.429382 33.833214 -3.020363
2011-07-26 11:49:23 51°24.721 2°43.69 17.5964 4.429486 33.832771 -3.020363
2011-07-26 11:50:22 51°24.717 2°43.692 17.596 4.430212 33.838312 -3.020363
2011-07-26 11:51:21 51°24.713 2°43.698 17.5963 4.431664 33.85006 -3.020363
2011-07-26 11:52:20 51°24.709 2°43.701 17.5981 4.431975 33.852719 -3.020363
2011-07-26 11:53:20 51°24.704 2°43.7 17.6009 4.431457 33.848951 -3.020363
2011-07-26 11:54:20 51°24.7 2°43.706 17.5986 4.431872 33.851168 -3.020363
2011-07-26 11:55:20 51°24.695 2°43.71 17.5987 4.433428 33.865132 -3.020363
2011-07-26 11:56:21 51°24.689 2°43.711 17.5994 4.433531 33.864023 -3.020363
2011-07-26 11:57:20 51°24.682 2°43.714 17.601 4.43322 33.861363 -3.020363
2011-07-26 11:58:20 51°24.675 2°43.719 17.6012 4.432701 33.85693 -3.020363
2011-07-26 11:59:20 51°24.669 2°43.723 17.5969 4.43239 33.852941 -3.020363
2011-07-26 12:00:20 51°24.663 2°43.728 17.5996 4.431249 33.847178 -3.020363
2011-07-26 12:01:20 51°24.658 2°43.734 17.5966 4.430834 33.842967 -3.020363
2011-07-26 12:02:20 51°24.653 2°43.741 17.5958 4.43042 33.839421 -3.020363
2011-07-26 12:03:20 51°24.646 2°43.745 17.5975 4.430108 33.837426 -3.020363
2011-07-26 12:04:20 51°24.639 2°43.749 17.5956 4.430108 33.838755 -3.020363
2011-07-26 12:05:21 51°24.64 2°43.773 17.6 4.430212 33.839642 -3.020363
2011-07-26 12:06:20 51°24.666 2°43.805 17.6006 4.430731 33.841416 -3.020363
2011-07-26 12:07:20 51°24.701 2°43.79 17.6013 4.430834 33.841637 -3.020363
2011-07-26 12:08:20 51°24.708 2°43.765 17.605 4.431042 33.841416 -3.020363
2011-07-26 12:09:20 51°24.703 2°43.755 17.6026 4.431249 33.84053 -3.020363
2011-07-26 12:10:20 51°24.695 2°43.744 17.6049 4.431249 33.841195 -3.020363
2011-07-26 12:11:20 51°24.687 2°43.73 17.6045 4.431664 33.844076 -3.020363
2011-07-26 12:12:20 51°24.678 2°43.722 17.6046 4.431768 33.844962 -3.020363
2011-07-26 12:13:20 51°24.67 2°43.717 17.6046 4.431664 33.843411 -3.020363
2011-07-26 12:14:20 51°24.662 2°43.716 17.6071 4.431975 33.845406 -3.020363
2011-07-26 12:15:20 51°24.655 2°43.717 17.6094 4.432183 33.846514 -3.020363
2011-07-26 12:16:20 51°24.647 2°43.718 17.613 4.432805 33.851167 -3.020363
2011-07-26 12:17:20 51°24.64 2°43.721 17.611 4.433116 33.853162 -3.020363
2011-07-26 12:18:20 51°24.632 2°43.724 17.6147 4.433531 33.856042 -3.020363
2011-07-26 12:19:20 51°24.625 2°43.724 17.6129 4.434153 33.858701 -3.020363
2011-07-26 12:20:20 51°24.619 2°43.67 17.6193 4.434776 33.863354 -3.020363
2011-07-26 12:21:20 51°24.664 2°43.626 17.6083 4.433427 33.849174 -3.020363
2011-07-26 12:22:20 51°24.69 2°43.666 17.6085 4.432286 33.846735 -3.020363
2011-07-26 12:23:20 51°24.689 2°43.688 17.61 4.43239 33.846957 -3.020363
2011-07-26 12:24:20 51°24.686 2°43.699 17.6093 4.433012 33.851611 -3.020363
2011-07-26 12:25:20 51°24.682 2°43.706 17.6127 4.434153 33.860696 -3.020363
2011-07-26 12:26:20 51°24.676 2°43.708 17.6144 4.435191 33.866235 -3.020363
2011-07-26 12:27:20 51°24.667 2°43.706 17.6152 4.435502 33.868229 -3.020363
2011-07-26 12:28:20 51°24.658 2°43.702 17.6139 4.436124 33.874212 -3.020363
2011-07-26 12:29:20 51°24.65 2°43.698 17.6136 4.436124 33.874877 -3.020363
2011-07-26 12:30:20 51°24.641 2°43.693 17.6147 4.436228 33.875098 -3.020363
2011-07-26 12:31:20 51°24.631 2°43.69 17.6134 4.436435 33.876871 -3.020363
2011-07-26 12:32:20 51°24.623 2°43.688 17.6159 4.436435 33.877536 -3.020363
2011-07-26 12:33:20 51°24.616 2°43.688 17.6164 4.436435 33.875541 -3.020363
2011-07-26 12:34:20 51°24.608 2°43.688 17.6165 4.435709 33.869336 -3.020363
2011-07-26 12:35:20 51°24.604 2°43.703 17.619 4.434879 33.861581 -3.020363
2011-07-26 12:36:21 51°24.628 2°43.773 17.6221 4.434672 33.856485 -3.020363
2011-07-26 12:37:20 51°24.599 2°43.904 17.6237 4.433946 33.848953 -3.020363
2011-07-26 12:38:21 51°24.504 2°44.083 17.6267 4.433635 33.843637 -3.020363
2011-07-26 12:39:21 51°24.357 2°44.185 17.6296 4.433635 33.842308 -3.020363
2011-07-26 12:40:20 51°24.207 2°44.278 17.6293 4.433323 33.838986 -3.020363
2011-07-26 12:41:21 51°24.051 2°44.367 17.6313 4.43156 33.823262 -3.020363
2011-07-26 12:42:20 51°23.898 2°44.452 17.6335 4.431456 33.821712 -3.020363
2011-07-26 12:43:21 51°23.744 2°44.544 17.6362 4.431664 33.820165 -3.020363
2011-07-26 12:44:20 51°23.594 2°44.629 17.6347 4.430834 33.810425 -3.020363
2011-07-26 12:45:21 51°23.438 2°44.716 17.636 4.427618 33.784296 -3.020363
2011-07-26 12:46:20 51°23.287 2°44.805 17.6241 4.420773 33.728502 -3.020363
2011-07-26 12:47:20 51°23.132 2°44.897 17.6204 4.412994 33.670034 -3.020363
2011-07-26 12:48:20 51°22.975 2°44.983 17.6196 4.410193 33.648772 -3.020363
2011-07-26 12:49:20 51°22.828 2°45.096 17.6241 4.410919 33.653648 -3.020363
2011-07-26 12:50:21 51°22.702 2°45.281 17.635 4.411542 33.652355 -3.020363
2011-07-26 12:51:20 51°22.576 2°45.459 17.6416 4.411542 33.646412 -3.020363
2011-07-26 12:52:21 51°22.435 2°45.635 17.6548 4.412786 33.64911 -3.020363
2011-07-26 12:53:20 51°22.296 2°45.806 17.6615 4.410712 33.622841 -3.020363
2011-07-26 12:54:21 51°22.153 2°45.979 17.6681 4.404177 33.559226 -3.020363
2011-07-26 12:55:20 51°22.011 2°46.147 17.6674 4.39422 33.471091 -3.020363
2011-07-26 12:56:21 51°21.866 2°46.326 17.6646 4.387894 33.41785 -3.020363
2011-07-26 12:57:21 51°21.724 2°46.503 17.6647 4.381671 33.368775 -3.020363
2011-07-26 12:58:20 51°21.579 2°46.667 17.6623 4.379597 33.350455 -3.020363
2011-07-26 12:59:21 51°21.431 2°46.84 17.6652 4.379285 33.346498 -3.020363
2011-07-26 13:00:20 51°21.292 2°47.006 17.672 4.380426 33.35556 -3.020363
2011-07-26 13:01:21 51°21.148 2°47.179 17.6651 4.381256 33.361972 -3.020363
2011-07-26 13:02:20 51°21.008 2°47.344 17.666 4.380115 33.354218 -3.020363
2011-07-26 13:03:21 51°20.866 2°47.516 17.6787 4.379389 33.343461 -3.020363
2011-07-26 13:04:20 51°20.729 2°47.683 17.6779 4.369744 33.256137 -3.020363
2011-07-26 13:05:20 51°20.585 2°47.842 17.6682 4.361136 33.182895 -3.020363
2011-07-26 13:06:20 51°20.445 2°48.014 17.6734 4.353773 33.122858 -3.020363
2011-07-26 13:07:20 51°20.298 2°48.178 17.6657 4.34755 33.069939 -3.020363
2011-07-26 13:08:21 51°20.151 2°48.351 17.6701 4.344646 33.047191 -3.020363
2011-07-26 13:09:20 51°20.011 2°48.52 17.6754 4.34475 33.047425 -3.020363
2011-07-26 13:10:21 51°19.862 2°48.689 17.6841 4.342883 33.027024 -3.020363
2011-07-26 13:11:20 51°19.719 2°48.854 17.6937 4.33832 32.978547 -3.020363
2011-07-26 13:12:20 51°19.573 2°49.023 17.6995 4.330957 32.912126 -3.020363
2011-07-26 13:13:20 51°19.427 2°49.187 17.6947 4.328053 32.886177 -3.020363
2011-07-26 13:14:21 51°19.282 2°49.356 17.6873 4.330957 32.912771 -3.020363
2011-07-26 13:15:20 51°19.143 2°49.515 17.6963 4.331994 32.926092 -3.020363
2011-07-26 13:16:20 51°19.002 2°49.674 17.7157 4.326809 32.871105 -3.020363
2011-07-26 13:17:21 51°18.862 2°49.843 17.7381 4.322972 32.821828 -3.020363
2011-07-26 13:18:20 51°18.729 2°50.015 17.7436 4.319757 32.779165 -3.020363
2011-07-26 13:19:21 51°18.593 2°50.196 17.7289 4.312083 32.717299 -3.020363
2011-07-26 13:20:20 51°18.458 2°50.368 17.6999 4.303165 32.653832 -3.020363
2011-07-26 13:21:21 51°18.319 2°50.551 17.6832 4.294248 32.600552 -3.020363
2011-07-26 13:22:20 51°18.183 2°50.721 17.6823 4.287715 32.552797 -3.020363
2011-07-26 13:23:20 51°18.047 2°50.902 17.6857 4.28533 32.533207 -3.020363
2011-07-26 13:24:20 51°17.907 2°51.075 17.6884 4.285537 32.529871 -3.020363
2011-07-26 13:25:20 51°17.767 2°51.244 17.689 4.284812 32.524352 -3.020363
2011-07-26 13:26:21 51°17.625 2°51.417 17.6969 4.282841 32.505102 -3.020363
2011-07-26 13:27:20 51°17.481 2°51.574 17.7016 4.279834 32.473253 -3.020363
2011-07-26 13:28:21 51°17.327 2°51.723 17.7153 4.277138 32.44596 -3.020363
2011-07-26 13:29:20 51°17.177 2°51.869 17.7144 4.274235 32.416921 -3.020363
2011-07-26 13:30:21 51°17.02 2°52.019 17.7092 4.270087 32.379888 -3.020363
2011-07-26 13:31:20 51°16.871 2°52.17 17.709 4.264488 32.335633 -3.020363
2011-07-26 13:32:20 51°16.718 2°52.318 17.706 4.261481 32.311434 -3.020363
2011-07-26 13:33:20 51°16.573 2°52.484 19.4485 4.259407 32.298298 -3.020363
2011-07-26 13:34:20 51°16.426 2°52.641 18.7322 0.090212 0.519376 -3.020363
2011-07-26 13:35:21 51°16.277 2°52.8 18.5092 0.06533 0.371787 -3.020363
2011-07-26 13:36:20 51°16.136 2°52.958 18.4952 0.05731 0.324791 -3.020363
2011-07-26 13:37:21 51°15.993 2°53.141 18.4988 0.052169 0.294835 -3.020363
2011-07-26 13:38:20 51°15.86 2°53.332 18.5128 0.048571 0.273955 -3.020363
2011-07-26 13:39:20 51°15.721 2°53.518 18.5349 0.045898 0.258494 -3.020363
2011-07-26 13:40:21 51°15.578 2°53.707 18.5864 0.044047 0.247813 -3.020363
2011-07-26 13:41:21 51°15.438 2°53.895 18.6044 0.042813 0.240696 -3.020363
2011-07-26 13:42:21 51°15.295 2°54.082 18.6948 0.041682 0.234181 -3.020363
2011-07-26 13:43:20 51°15.155 2°54.263 18.7617 0.040654 0.22827 -3.020363
2011-07-26 13:44:21 51°15.01 2°54.45 18.8322 0.039729 0.222951 -3.020363
2011-07-26 13:45:20 51°14.861 2°54.612 18.877 0.039009 0.21882 -3.020363
2011-07-26 13:46:21 51°14.697 2°54.765 18.9364 0.038289 0.214684 -3.020363
2011-07-26 13:47:20 51°14.546 2°54.921 19.0174 0.03757 0.210562 -3.020363
2011-07-26 13:48:21 51°14.411 2°55.117 19.1001 0.03685 0.206437 -3.020363
2011-07-26 13:49:21 51°14.288 2°55.259 19.1612 0.036233 0.202906 -3.020363
2011-07-26 13:50:20 51°14.18 2°55.365 19.2071 0.500215 2.946678 -3.020363
2011-07-26 13:51:21 51°14.061 2°55.459 19.4497 0.089491 0.481455 -3.020363
2011-07-26 13:52:21 51°13.949 2°55.542 19.4684 0.060702 0.323621 -3.020363
2011-07-26 13:53:21 51°13.843 2°55.622 19.5049 0.057412 0.30668 -3.020363
2011-07-26 13:54:21 51°13.755 2°55.714 19.5695 0.056281 0.300982 -3.020363
2011-07-26 13:55:21 51°13.698 2°55.818 19.6035 0.056076 0.299684 -3.020363
2011-07-26 13:56:21 51°13.66 2°55.907 19.6743 0.056076 0.298718 -3.020363
2011-07-26 13:57:21 51°13.642 2°55.991 19.7215 0.056179 0.299766 -3.020363